Time;durP1;ratioP1;P1;durP2;ratioP2;P2;SDS_P1;SDS_P2;PMS_P1;PMS_P2;Temp;Humidity;BMP_temperature;BMP_pressure;BME280_temperature;BME280_humidity;BME280_pressure;Samples;Min_cycle;Max_cycle;Signal;HPM_P1;HPM_P2
2022/04/12 00:03:36;;;;;;;14.23;7.87;;;;;;;5.86;95.83;100946.88;10461496;28;20789;-68
2022/04/12 00:08:39;;;;;;;11.70;6.97;;;;;;;5.77;96.54;100949.22;10461561;28;20307;-70
2022/04/12 00:13:43;;;;;;;17.10;8.80;;;;;;;5.75;97.48;100953.47;10460155;28;20592;-70
2022/04/12 00:19:06;;;;;;;14.83;7.97;;;;;;;5.70;98.11;100944.78;10460804;28;20664;-70
2022/04/12 00:24:10;;;;;;;13.77;7.70;;;;;;;5.56;97.96;100952.25;10460638;28;20223;-68
2022/04/12 00:29:13;;;;;;;17.10;7.93;;;;;;;5.50;98.03;100953.84;10460434;28;20217;-68
2022/04/12 00:34:18;;;;;;;13.07;7.20;;;;;;;5.46;98.48;100950.34;10459752;28;20223;-70
2022/04/12 00:39:21;;;;;;;14.07;8.33;;;;;;;5.36;98.72;100955.28;10458869;28;20312;-71
2022/04/12 00:44:24;;;;;;;15.37;8.33;;;;;;;5.18;100.00;100963.50;10459097;28;20221;-68
2022/04/12 00:49:29;;;;;;;16.37;8.93;;;;;;;5.12;100.00;100967.63;10459523;28;20220;-69
2022/04/12 00:54:34;;;;;;;12.90;7.23;;;;;;;5.11;100.00;100963.34;10459371;28;20219;-72
2022/04/12 00:59:37;;;;;;;14.07;7.27;;;;;;;5.07;100.00;100961.53;10459123;28;20656;-68
2022/04/12 01:04:42;;;;;;;17.00;8.83;;;;;;;5.04;100.00;100959.75;10458243;28;20559;-68
2022/04/12 01:09:46;;;;;;;14.97;7.70;;;;;;;4.82;100.00;100966.97;10458751;28;20561;-68
2022/04/12 01:14:50;;;;;;;15.07;8.67;;;;;;;4.82;100.00;100969.53;10458746;28;20233;-67
2022/04/12 01:19:54;;;;;;;16.20;7.50;;;;;;;4.73;100.00;100980.47;10458931;28;20682;-67
2022/04/12 01:24:59;;;;;;;14.20;8.43;;;;;;;4.69;100.00;100971.81;10458197;28;20574;-68
2022/04/12 01:30:02;;;;;;;15.53;8.60;;;;;;;4.62;100.00;100980.22;10458336;28;20307;-70
2022/04/12 01:35:07;;;;;;;14.13;7.20;;;;;;;4.57;100.00;100984.38;10458055;28;20217;-69
2022/04/12 01:40:12;;;;;;;14.50;8.00;;;;;;;4.43;100.00;100978.06;10458064;28;20238;-70
2022/04/12 01:45:15;;;;;;;15.53;8.03;;;;;;;4.34;100.00;100980.41;10457859;28;20220;-70
2022/04/12 01:50:19;;;;;;;16.73;7.90;;;;;;;4.27;100.00;100985.34;10460663;28;20281;-68
2022/04/12 01:55:23;;;;;;;17.97;8.37;;;;;;;4.13;100.00;100990.13;10460404;28;20212;-69
2022/04/12 02:00:27;;;;;;;17.03;8.43;;;;;;;4.02;100.00;100983.00;10460242;28;20243;-69
2022/04/12 02:05:30;;;;;;;16.43;8.33;;;;;;;3.99;100.00;100988.03;10460113;28;20307;-71
2022/04/12 02:10:35;;;;;;;14.80;7.93;;;;;;;3.92;100.00;100992.13;10459938;28;20664;-70
2022/04/12 02:15:38;;;;;;;14.47;8.07;;;;;;;3.86;100.00;100994.56;10459588;28;20307;-69
2022/04/12 02:20:42;;;;;;;14.53;8.00;;;;;;;3.76;100.00;100997.72;10459617;28;20652;-68
2022/04/12 02:25:46;;;;;;;20.10;8.30;;;;;;;3.65;100.00;101000.78;10459923;28;20233;-69
2022/04/12 02:30:50;;;;;;;17.70;8.80;;;;;;;3.63;100.00;101007.56;10459250;28;20668;-69
2022/04/12 02:35:53;;;;;;;16.43;8.50;;;;;;;3.59;100.00;101016.03;10459246;28;20221;-70
2022/04/12 02:40:58;;;;;;;16.63;8.43;;;;;;;3.60;100.00;101017.75;10459073;28;20664;-69
2022/04/12 02:46:02;;;;;;;18.57;9.67;;;;;;;3.47;100.00;101019.97;10458237;28;20217;-68
2022/04/12 02:51:07;;;;;;;18.83;10.23;;;;;;;3.47;100.00;101016.53;10459212;28;20317;-70
2022/04/12 02:56:13;;;;;;;16.33;8.37;;;;;;;3.44;100.00;101021.59;10458546;28;20277;-69
2022/04/12 03:01:17;;;;;;;20.43;8.77;;;;;;;3.33;100.00;101018.69;10458780;28;20236;-71
2022/04/12 03:06:20;;;;;;;18.23;9.23;;;;;;;3.30;100.00;101033.13;10458597;28;20225;-68
2022/04/12 03:11:24;;;;;;;18.47;10.07;;;;;;;3.29;100.00;101033.97;10458684;28;20245;-68
2022/04/12 03:16:28;;;;;;;15.60;8.90;;;;;;;3.20;100.00;101034.56;10458282;28;20213;-68
2022/04/12 03:21:31;;;;;;;15.00;8.80;;;;;;;3.21;100.00;101049.13;10458365;28;20660;-74
2022/04/12 03:26:36;;;;;;;20.57;9.70;;;;;;;3.16;100.00;101042.09;10463544;28;20216;-70
2022/04/12 03:31:39;;;;;;;16.17;9.50;;;;;;;3.10;100.00;101047.06;10466323;28;20269;-72
2022/04/12 03:36:43;;;;;;;15.67;9.07;;;;;;;3.02;100.00;101048.53;10465952;28;20299;-73
2022/04/12 03:41:49;;;;;;;15.17;8.97;;;;;;;2.91;100.00;101044.75;10465742;28;20735;-72
2022/04/12 03:46:52;;;;;;;19.57;9.60;;;;;;;2.94;100.00;101052.53;10465984;28;20672;-70
2022/04/12 03:51:56;;;;;;;17.87;9.70;;;;;;;2.89;100.00;101051.50;10465510;28;20307;-71
2022/04/12 03:57:01;;;;;;;18.23;9.50;;;;;;;2.89;100.00;101057.53;10465148;28;20676;-71
2022/04/12 04:02:05;;;;;;;19.57;10.83;;;;;;;2.83;100.00;101056.47;10465363;28;20220;-70
2022/04/12 04:07:08;;;;;;;21.70;11.00;;;;;;;2.80;100.00;101064.03;10464895;28;20223;-73
2022/04/12 04:12:13;;;;;;;21.60;11.50;;;;;;;2.82;100.00;101068.41;10464547;28;20225;-71
2022/04/12 04:17:16;;;;;;;20.93;11.20;;;;;;;2.86;100.00;101071.94;10464429;28;20225;-71
2022/04/12 04:22:20;;;;;;;19.60;11.33;;;;;;;2.81;100.00;101066.66;10464240;28;20231;-74
2022/04/12 04:27:28;;;;;;;22.50;11.43;;;;;;;2.82;100.00;101073.53;10464294;28;20227;-73
2022/04/12 04:32:32;;;;;;;23.97;11.33;;;;;;;2.76;100.00;101075.03;10464106;28;20221;-75
2022/04/12 04:37:42;;;;;;;22.23;11.00;;;;;;;2.83;100.00;101080.38;10463813;28;20227;-71
2022/04/12 04:42:47;;;;;;;19.20;11.97;;;;;;;2.94;100.00;101083.28;10463669;28;20281;-70
2022/04/12 04:47:52;;;;;;;25.03;11.53;;;;;;;3.05;100.00;101085.38;10464202;28;20209;-72
2022/04/12 04:52:55;;;;;;;25.97;12.73;;;;;;;3.12;100.00;101099.25;10463113;28;20652;-70
2022/04/12 04:58:00;;;;;;;20.67;12.27;;;;;;;3.22;100.00;101097.03;10463024;28;20223;-73
2022/04/12 05:03:04;;;;;;;22.57;12.60;;;;;;;3.32;100.00;101096.50;10462623;28;20234;-70
2022/04/12 05:08:08;;;;;;;26.07;13.57;;;;;;;3.43;100.00;101097.66;10461999;28;20263;-75
2022/04/12 05:13:13;;;;;;;21.93;12.93;;;;;;;3.46;100.00;101105.47;10462102;28;20710;-75
2022/04/12 05:18:17;;;;;;;27.07;13.33;;;;;;;3.51;100.00;101114.19;10462099;28;20624;-72
2022/04/12 05:23:20;;;;;;;24.77;14.80;;;;;;;3.66;100.00;101121.44;10461661;28;20537;-69
2022/04/12 05:28:25;;;;;;;25.97;12.97;;;;;;;3.78;100.00;101129.50;10461540;28;20193;-71
2022/04/12 05:33:28;;;;;;;21.70;13.37;;;;;;;3.86;100.00;101133.19;10461442;28;20197;-70
2022/04/12 05:38:31;;;;;;;21.43;12.80;;;;;;;3.94;100.00;101129.13;10461219;28;20204;-69
2022/04/12 05:43:36;;;;;;;26.13;12.30;;;;;;;4.09;100.00;101133.84;10459486;28;20209;-69
2022/04/12 05:48:40;;;;;;;19.30;11.23;;;;;;;4.17;100.00;101135.81;10458503;28;20235;-71
2022/04/12 05:53:43;;;;;;;16.03;9.60;;;;;;;4.30;100.00;101137.88;10458084;28;20189;-70
2022/04/12 05:58:48;;;;;;;18.83;9.90;;;;;;;4.49;100.00;101134.09;10457414;28;20201;-71
2022/04/12 06:03:52;;;;;;;18.00;9.63;;;;;;;4.63;100.00;101151.63;10456580;28;20239;-69
2022/04/12 06:08:56;;;;;;;16.00;10.37;;;;;;;4.77;100.00;101153.69;10456440;28;20181;-70
2022/04/12 06:14:00;;;;;;;16.93;9.63;;;;;;;4.86;100.00;101152.22;10458528;28;20225;-69
2022/04/12 06:19:04;;;;;;;14.60;8.57;;;;;;;4.95;100.00;101156.72;10457933;28;20189;-70
2022/04/12 06:24:07;;;;;;;19.57;8.80;;;;;;;5.08;99.93;101167.34;10458360;28;20264;-68
2022/04/12 06:29:12;;;;;;;14.23;8.07;;;;;;;5.24;98.21;101154.03;10458273;28;20199;-69
2022/04/12 06:34:15;;;;;;;16.57;9.03;;;;;;;5.38;97.13;101164.66;10459306;28;20220;-68
2022/04/12 06:39:18;;;;;;;18.87;9.93;;;;;;;5.46;96.22;101169.16;10458383;28;20216;-68
2022/04/12 06:44:23;;;;;;;17.80;8.93;;;;;;;5.56;96.82;101172.78;10458944;28;20233;-69
2022/04/12 06:49:26;;;;;;;16.13;9.37;;;;;;;5.70;94.61;101177.44;10458070;28;20234;-69
2022/04/12 06:54:30;;;;;;;18.40;8.37;;;;;;;5.86;92.60;101176.09;10458680;28;20239;-70
2022/04/12 06:59:34;;;;;;;17.80;9.03;;;;;;;5.98;88.14;101168.63;10460070;28;20219;-69
2022/04/12 07:04:40;;;;;;;14.90;7.37;;;;;;;6.08;86.42;101178.28;10466950;28;20236;-68
2022/04/12 07:09:43;;;;;;;16.80;7.80;;;;;;;6.21;82.32;101172.56;10466873;28;20212;-72
2022/04/12 07:14:48;;;;;;;15.00;7.10;;;;;;;6.38;83.28;101176.34;10466694;28;20240;-69
2022/04/12 07:19:56;;;;;;;14.37;6.73;;;;;;;6.50;80.36;101176.59;10466299;28;20680;-70
2022/04/12 07:25:00;;;;;;;9.90;5.90;;;;;;;6.62;78.73;101181.97;10466116;28;20255;-69
2022/04/12 07:30:07;;;;;;;14.57;6.03;;;;;;;6.74;77.98;101182.22;10466146;28;20227;-71
2022/04/12 07:35:11;;;;;;;9.70;5.03;;;;;;;6.87;76.34;101191.00;10465994;28;20308;-66
2022/04/12 07:40:14;;;;;;;9.40;4.37;;;;;;;6.97;71.76;101195.53;10465385;28;20220;-70
2022/04/12 07:45:19;;;;;;;7.83;3.20;;;;;;;7.08;71.29;101196.56;10465285;28;20255;-69
2022/04/12 07:50:22;;;;;;;13.93;5.00;;;;;;;7.26;71.21;101199.47;10465122;28;20223;-68
2022/04/12 07:55:26;;;;;;;5.60;2.50;;;;;;;7.53;69.14;101201.59;10464942;28;20220;-71
2022/04/12 08:00:30;;;;;;;10.23;4.77;;;;;;;7.63;68.18;101200.91;10464584;28;20216;-67
2022/04/12 08:05:34;;;;;;;6.60;2.60;;;;;;;7.93;68.15;101203.94;10464605;28;20308;-71
2022/04/12 08:10:37;;;;;;;8.67;3.83;;;;;;;8.15;65.78;101186.16;10463808;28;20227;-73
2022/04/12 08:15:42;;;;;;;5.23;2.13;;;;;;;8.34;62.87;101187.28;10464239;28;20244;-71
2022/04/12 08:20:49;;;;;;;4.87;1.30;;;;;;;8.44;58.92;101189.13;10464452;28;20227;-70
2022/04/12 08:25:53;;;;;;;4.40;1.87;;;;;;;8.69;59.14;101198.91;10463824;28;20228;-67
2022/04/12 08:30:58;;;;;;;5.83;2.23;;;;;;;8.99;60.06;101208.72;10463472;28;20217;-69
2022/04/12 08:36:02;;;;;;;5.63;1.87;;;;;;;9.03;58.15;101203.56;10463726;28;20216;-69
2022/04/12 08:41:07;;;;;;;9.33;2.53;;;;;;;9.05;58.60;101203.59;10463053;28;20212;-67
2022/04/12 08:46:12;;;;;;;8.83;2.37;;;;;;;9.35;58.28;101206.47;10463336;28;20223;-69
2022/04/12 08:51:16;;;;;;;5.40;2.37;;;;;;;9.39;56.92;101197.00;10463322;28;20228;-69
2022/04/12 08:56:20;;;;;;;8.00;1.97;;;;;;;9.42;56.68;101195.31;10462876;28;20300;-69
2022/04/12 09:01:24;;;;;;;6.67;2.40;;;;;;;9.68;57.00;101195.50;10462464;28;20221;-68
2022/04/12 09:06:28;;;;;;;8.20;2.57;;;;;;;9.85;57.54;101197.34;10462481;28;20215;-71
2022/04/12 09:11:33;;;;;;;5.83;2.87;;;;;;;10.07;58.25;101187.94;10461752;28;20232;-71
2022/04/12 09:16:43;;;;;;;7.17;2.40;;;;;;;10.06;57.24;101197.44;10462236;28;20229;-70
2022/04/12 09:21:48;;;;;;;8.80;1.97;;;;;;;9.81;55.14;101200.75;10460516;28;20695;-70
2022/04/12 09:26:56;;;;;;;6.17;2.30;;;;;;;10.30;54.80;101182.03;10461730;28;20226;-69
2022/04/12 09:32:01;;;;;;;6.53;2.20;;;;;;;11.50;52.28;101164.91;10460419;28;20243;-70
2022/04/12 09:37:17;;;;;;;6.63;2.43;;;;;;;11.38;51.74;101170.13;10461190;28;20599;-68
2022/04/12 09:42:44;;;;;;;6.37;2.57;;;;;;;10.76;51.96;101171.78;10460623;28;20236;-70
2022/04/12 09:47:54;;;;;;;6.00;2.63;;;;;;;11.55;51.61;101170.97;10460921;28;20212;-70
2022/04/12 09:53:17;;;;;;;7.87;2.50;;;;;;;13.63;48.49;101169.94;10460437;28;20234;-71
2022/04/12 09:58:22;;;;;;;5.67;2.50;;;;;;;14.53;46.47;101160.22;10460056;28;20220;-71
2022/04/12 10:03:28;;;;;;;6.00;2.27;;;;;;;14.01;44.63;101174.75;10459821;28;20228;-68
2022/04/12 10:08:35;;;;;;;5.67;2.00;;;;;;;14.91;44.35;101160.50;10459942;28;20220;-71
2022/04/12 10:13:39;;;;;;;6.90;2.20;;;;;;;15.94;40.72;101157.06;10459484;28;20240;-68
2022/04/12 10:18:45;;;;;;;5.83;2.00;;;;;;;16.55;39.57;101147.06;10459691;28;20221;-69
2022/04/12 10:23:52;;;;;;;7.03;2.83;;;;;;;16.69;38.97;101134.50;10459206;28;20231;-71
2022/04/12 10:28:59;;;;;;;6.93;2.20;;;;;;;14.88;41.29;101140.53;10459669;28;20220;-69
2022/04/12 10:34:10;;;;;;;7.67;2.80;;;;;;;13.72;44.04;101155.03;10459061;28;20224;-70
2022/04/12 10:39:14;;;;;;;7.20;2.27;;;;;;;13.04;46.37;101160.00;10458991;28;20226;-69
2022/04/12 10:44:20;;;;;;;6.80;2.70;;;;;;;13.31;46.77;101149.34;10458561;28;20238;-65
2022/04/12 10:49:25;;;;;;;7.10;2.67;;;;;;;15.32;42.48;101145.06;10458414;28;20220;-64
2022/04/12 10:54:30;;;;;;;4.93;2.13;;;;;;;16.42;38.02;101128.97;10457452;28;20228;-64
2022/04/12 10:59:40;;;;;;;4.57;2.23;;;;;;;17.22;37.08;101110.47;10457802;28;20254;-62
2022/04/12 11:04:45;;;;;;;7.20;2.90;;;;;;;17.92;35.55;101112.16;10457178;28;20220;-64
2022/04/12 11:10:06;;;;;;;7.07;3.00;;;;;;;18.51;35.27;101112.19;10457281;28;20240;-70
2022/04/12 11:15:27;;;;;;;6.67;2.40;;;;;;;18.90;33.54;101114.44;10457511;28;20246;-65
2022/04/12 11:20:33;;;;;;;6.47;3.17;;;;;;;18.85;33.84;101115.50;10458265;28;20223;-74
2022/04/12 11:25:45;;;;;;;6.30;2.40;;;;;;;19.30;31.97;101121.91;10457404;28;20564;-66
2022/04/12 11:30:58;;;;;;;6.43;2.80;;;;;;;19.87;31.16;101114.63;10458206;28;20213;-64
2022/04/12 11:36:03;;;;;;;5.60;2.70;;;;;;;20.61;32.02;101114.47;10457331;28;20240;-68
2022/04/12 11:41:06;;;;;;;6.87;3.00;;;;;;;21.32;31.84;101119.50;10457764;28;20656;-66
2022/04/12 11:46:17;;;;;;;6.47;2.70;;;;;;;21.68;32.96;101099.44;10459515;28;20220;-66
2022/04/12 11:51:22;;;;;;;5.60;2.77;;;;;;;21.21;32.73;101105.91;10463788;28;20624;-67
2022/04/12 11:56:28;;;;;;;6.13;2.80;;;;;;;19.63;31.53;101110.22;10463875;28;20227;-67
2022/04/12 12:01:31;;;;;;;5.83;3.30;;;;;;;19.39;32.95;101114.59;10464088;28;20209;-65
2022/04/12 12:06:53;;;;;;;9.30;2.50;;;;;;;20.17;32.12;101107.41;10463309;28;20220;-64
2022/04/12 12:12:01;;;;;;;5.90;2.73;;;;;;;19.92;31.21;101111.81;10464410;28;20232;-67
2022/04/12 12:17:08;;;;;;;5.37;2.40;;;;;;;19.58;30.52;101111.31;10464271;28;20704;-65
2022/04/12 12:22:14;;;;;;;5.60;2.57;;;;;;;20.11;30.51;101100.56;10464220;28;20304;-66
2022/04/12 12:27:27;;;;;;;4.77;2.00;;;;;;;19.77;31.00;101093.94;10464207;28;20361;-69
2022/04/12 12:32:34;;;;;;;5.83;2.50;;;;;;;18.88;33.91;101097.84;10463378;28;20217;-66
2022/04/12 12:37:40;;;;;;;6.53;2.47;;;;;;;18.73;33.40;101092.19;10463620;28;20672;-66
2022/04/12 12:42:44;;;;;;;5.53;2.40;;;;;;;18.75;33.77;101095.66;10461384;28;20240;-66
2022/04/12 12:47:50;;;;;;;5.40;2.47;;;;;;;18.92;30.83;101095.97;10461970;28;20224;-67
2022/04/12 12:53:00;;;;;;;5.35;2.10;;;;;;;21.83;29.67;101090.84;10461928;28;20225;-65
2022/04/12 12:58:05;;;;;;;6.22;2.08;;;;;;;22.30;28.58;101089.56;10458710;28;20533;-63
2022/04/12 13:03:09;;;;;;;;;;;;;;;23.90;28.15;101079.72;10462518;28;20067;-62
2022/04/12 13:08:22;;;;;;;;;;;;;;;23.79;27.32;101073.28;10462075;28;19933;-63
2022/04/12 13:13:25;;;;;;;;;;;;;;;24.61;26.95;101080.28;10457020;28;19920;-67
2022/04/12 13:18:29;;;;;;;;;;;;;;;24.08;26.75;101067.28;10461266;28;20013;-66
2022/04/12 13:23:34;;;;;;;;;;;;;;;21.24;28.46;101072.31;10461148;28;19974;-65
2022/04/12 13:28:37;;;;;;;;;;;;;;;22.21;27.99;101071.47;10460990;28;19927;-66
2022/04/12 13:33:40;;;;;;;;;;;;;;;20.32;29.31;101078.69;10458111;28;19939;-65
2022/04/12 13:38:44;;;;;;;;;;;;;;;19.47;30.58;101074.81;10460637;28;19927;-66
2022/04/12 13:43:47;;;;;;;;;;;;;;;18.54;31.87;101083.16;10459643;28;19956;-64
2022/04/12 13:48:51;;;;;;;6.03;2.10;;;;;;;17.33;31.58;101087.47;10458492;28;20195;-65
2022/04/12 13:53:55;;;;;;;8.20;2.00;;;;;;;17.54;31.08;101093.94;10459433;28;20229;-66
2022/04/12 13:58:59;;;;;;;4.87;1.70;;;;;;;17.32;32.33;101090.13;10459323;28;20216;-70
2022/04/12 14:04:03;;;;;;;6.57;1.83;;;;;;;17.17;31.85;101093.16;10456601;28;20233;-63
2022/04/12 14:09:07;;;;;;;6.73;1.90;;;;;;;17.33;30.89;101091.84;10458788;28;20655;-63
2022/04/12 14:14:13;;;;;;;6.37;2.40;;;;;;;17.31;31.44;101094.50;10458719;28;20624;-74
2022/04/12 14:19:20;;;;;;;5.40;2.20;;;;;;;16.86;30.28;101098.28;10459086;28;20220;-69
2022/04/12 14:24:27;;;;;;;8.47;1.97;;;;;;;16.83;30.84;101089.63;10456254;28;20220;-66
2022/04/12 14:29:31;;;;;;;5.03;1.43;;;;;;;16.96;30.35;101094.53;10458465;28;20262;-66
2022/04/12 14:34:36;;;;;;;5.27;1.60;;;;;;;17.26;30.92;101079.78;10457913;28;20251;-60
2022/04/12 14:39:41;;;;;;;6.30;1.80;;;;;;;17.84;32.24;101097.50;10457937;28;20208;-61
2022/04/12 14:44:44;;;;;;;5.53;1.60;;;;;;;18.14;30.25;101094.84;10457093;28;20315;-58
2022/04/12 14:49:48;;;;;;;7.50;2.07;;;;;;;18.60;28.86;101096.13;10457650;28;20659;-63
2022/04/12 14:54:52;;;;;;;5.20;1.90;;;;;;;18.51;28.45;101093.78;10457112;28;20231;-64
2022/04/12 14:59:57;;;;;;;7.93;2.00;;;;;;;18.69;29.71;101094.06;10457711;28;20660;-61
2022/04/12 15:05:00;;;;;;;4.47;1.37;;;;;;;18.56;29.81;101090.13;10457230;28;20228;-64
2022/04/12 15:10:06;;;;;;;4.57;1.67;;;;;;;18.06;29.23;101083.72;10457667;28;20228;-62
2022/04/12 15:15:12;;;;;;;5.37;1.73;;;;;;;17.87;29.38;101089.53;10455287;28;20232;-60
2022/04/12 15:20:15;;;;;;;11.37;2.13;;;;;;;17.20;30.72;101088.66;10458829;28;20212;-63
2022/04/12 15:25:20;;;;;;;7.53;2.20;;;;;;;16.83;31.61;101100.09;10465487;28;20227;-61
2022/04/12 15:30:23;;;;;;;6.50;1.93;;;;;;;16.10;31.81;101109.56;10465549;28;20189;-62
2022/04/12 15:35:27;;;;;;;7.50;2.13;;;;;;;15.69;31.33;101104.28;10445449;28;20588;-64
2022/04/12 15:40:34;;;;;;;3.87;1.80;;;;;;;15.50;31.58;101107.25;10465463;28;20185;-66
2022/04/12 15:45:37;;;;;;;29.03;14.17;;;;;;;15.08;31.04;101107.09;10466145;28;20677;-67
2022/04/12 15:50:40;;;;;;;8.70;1.90;;;;;;;14.99;32.34;101109.88;10466103;28;20188;-63
2022/04/12 15:55:45;;;;;;;5.97;1.80;;;;;;;14.98;32.49;101108.13;10464229;28;20204;-65
2022/04/12 16:00:52;;;;;;;5.00;2.00;;;;;;;14.73;32.23;101111.16;10463265;28;20219;-71
2022/04/12 16:06:00;;;;;;;8.30;2.43;;;;;;;14.49;32.01;101107.16;10464694;28;20243;-67
2022/04/12 16:11:07;;;;;;;6.87;2.00;;;;;;;14.38;34.77;101105.56;10464482;28;20295;-64
2022/04/12 16:16:11;;;;;;;4.63;1.80;;;;;;;14.25;33.92;101111.81;10464535;28;20579;-66
2022/04/12 16:21:15;;;;;;;8.07;2.40;;;;;;;13.90;35.91;101114.84;10464385;28;20189;-64
2022/04/12 16:26:22;;;;;;;7.10;1.93;;;;;;;13.79;37.45;101128.00;10464289;28;20216;-66
2022/04/12 16:31:26;;;;;;;8.07;2.47;;;;;;;13.66;37.21;101136.84;10464250;28;20287;-65
2022/04/12 16:36:29;;;;;;;6.90;1.67;;;;;;;13.46;36.44;101138.78;10463725;28;20286;-65
2022/04/12 16:41:34;;;;;;;5.97;1.60;;;;;;;13.28;38.32;101145.91;10463575;28;20216;-65
2022/04/12 16:46:39;;;;;;;6.50;2.00;;;;;;;13.06;36.73;101158.25;10463376;28;20232;-63
2022/04/12 16:51:43;;;;;;;4.93;1.90;;;;;;;12.79;40.86;101164.47;10463562;28;20208;-66
2022/04/12 16:56:48;;;;;;;5.90;1.63;;;;;;;12.60;37.29;101165.44;10463196;28;20694;-65
2022/04/12 17:01:51;;;;;;;8.30;1.70;;;;;;;12.38;39.17;101169.03;10462895;28;20228;-62
2022/04/12 17:06:54;;;;;;;15.77;7.00;;;;;;;12.21;39.05;101167.38;10462275;28;20235;-64
2022/04/12 17:11:59;;;;;;;10.73;3.07;;;;;;;11.94;40.09;101173.53;10462191;28;20579;-65
2022/04/12 17:17:03;;;;;;;9.50;2.50;;;;;;;11.75;40.41;101176.19;10462323;28;20216;-67
2022/04/12 17:22:07;;;;;;;5.67;2.30;;;;;;;11.61;38.53;101184.81;10462349;28;20300;-65
2022/04/12 17:27:13;;;;;;;11.33;2.60;;;;;;;11.45;39.93;101183.13;10461766;28;20227;-67
2022/04/12 17:32:16;;;;;;;11.60;3.40;;;;;;;11.28;40.50;101199.56;10461554;28;20370;-64
2022/04/12 17:37:19;;;;;;;7.47;2.50;;;;;;;11.15;42.25;101200.41;10461080;28;20239;-66
2022/04/12 17:42:24;;;;;;;9.37;2.73;;;;;;;10.99;44.08;101211.66;10460454;28;20208;-67
2022/04/12 17:47:28;;;;;;;9.83;3.60;;;;;;;10.82;43.78;101203.81;10460859;28;20301;-64
2022/04/12 17:52:33;;;;;;;28.27;12.37;;;;;;;10.67;44.26;101214.19;10460404;28;20244;-64
2022/04/12 17:57:39;;;;;;;9.67;3.83;;;;;;;10.63;43.16;101217.63;10460544;28;20567;-69
2022/04/12 18:02:42;;;;;;;9.10;3.57;;;;;;;10.36;44.73;101222.69;10460621;28;20217;-69
2022/04/12 18:07:45;;;;;;;9.37;4.17;;;;;;;10.22;44.89;101238.22;10460109;28;20224;-71
2022/04/12 18:12:50;;;;;;;20.47;9.80;;;;;;;10.21;44.80;101243.41;10459828;28;20263;-69
2022/04/12 18:17:54;;;;;;;14.90;5.70;;;;;;;10.02;46.71;101250.16;10460737;28;20228;-69
2022/04/12 18:22:57;;;;;;;15.30;4.40;;;;;;;9.88;47.79;101249.22;10459653;28;20299;-69
2022/04/12 18:28:02;;;;;;;14.77;4.40;;;;;;;9.81;47.80;101244.84;10459403;28;20224;-67
2022/04/12 18:33:06;;;;;;;8.90;4.40;;;;;;;9.64;46.65;101249.03;10459194;28;20217;-66
2022/04/12 18:38:09;;;;;;;19.00;4.40;;;;;;;9.58;51.05;101248.13;10459067;28;20220;-68
2022/04/12 18:43:14;;;;;;;14.57;4.90;;;;;;;9.50;50.97;101245.44;10459122;28;20216;-67
2022/04/12 18:48:20;;;;;;;12.80;4.63;;;;;;;9.29;49.09;101247.84;10458842;28;20231;-67
2022/04/12 18:53:24;;;;;;;14.87;4.63;;;;;;;9.28;51.31;101262.50;10459002;28;20224;-67
2022/04/12 18:58:29;;;;;;;13.37;5.30;;;;;;;9.25;54.11;101264.19;10458893;28;20216;-70
2022/04/12 19:03:33;;;;;;;37.03;19.63;;;;;;;9.19;55.68;101259.84;10459075;28;20683;-68
2022/04/12 19:08:36;;;;;;;18.00;6.87;;;;;;;9.11;55.09;101258.88;10458707;28;20218;-69
2022/04/12 19:13:41;;;;;;;13.40;5.60;;;;;;;8.95;55.77;101262.19;10458258;28;20228;-66
2022/04/12 19:18:45;;;;;;;12.37;4.77;;;;;;;8.84;55.53;101261.19;10458610;28;20220;-69
2022/04/12 19:23:48;;;;;;;14.07;6.33;;;;;;;8.68;57.92;101267.03;10458251;28;20226;-68
2022/04/12 19:28:53;;;;;;;13.27;4.67;;;;;;;8.60;56.94;101265.19;10458261;28;20260;-66
2022/04/12 19:33:56;;;;;;;15.50;5.23;;;;;;;8.36;59.46;101270.94;10457842;28;20682;-67
2022/04/12 19:38:59;;;;;;;15.00;5.83;;;;;;;8.22;57.95;101275.00;10457935;28;20242;-66
2022/04/12 19:44:05;;;;;;;15.43;6.13;;;;;;;8.16;58.28;101267.19;10456902;28;20278;-67
2022/04/12 19:49:08;;;;;;;19.37;6.10;;;;;;;8.05;59.37;101266.16;10458016;28;20225;-68
2022/04/12 19:54:18;;;;;;;18.27;7.00;;;;;;;7.88;60.90;101270.22;10458134;28;20217;-73
2022/04/12 19:59:22;;;;;;;18.17;7.87;;;;;;;7.82;63.05;101275.25;10457534;28;20334;-66
2022/04/12 20:04:26;;;;;;;17.10;6.77;;;;;;;7.72;63.84;101271.69;10457496;28;20196;-66
2022/04/12 20:09:29;;;;;;;16.77;6.87;;;;;;;7.61;63.52;101280.13;10463574;28;20227;-67
2022/04/12 20:14:34;;;;;;;17.70;7.13;;;;;;;7.31;64.35;101282.16;10464745;28;20312;-66
2022/04/12 20:19:37;;;;;;;28.13;8.33;;;;;;;7.29;65.66;101283.84;10463896;28;20317;-68
2022/04/12 20:24:41;;;;;;;20.03;7.97;;;;;;;7.34;65.62;101284.78;10459075;28;20626;-67
2022/04/12 20:29:46;;;;;;;27.03;8.13;;;;;;;7.32;64.35;101289.03;10460101;28;20209;-68
2022/04/12 20:34:50;;;;;;;19.90;7.90;;;;;;;7.27;65.79;101285.50;10462997;28;20196;-68
2022/04/12 20:39:53;;;;;;;19.20;8.03;;;;;;;7.15;65.63;101287.88;10460744;28;20247;-65
2022/04/12 20:44:58;;;;;;;47.70;22.53;;;;;;;7.07;67.78;101287.75;10461382;28;20224;-66
2022/04/12 20:50:01;;;;;;;31.23;8.93;;;;;;;6.97;66.22;101294.44;10462488;28;20219;-67
2022/04/12 20:55:06;;;;;;;19.67;8.70;;;;;;;6.82;66.11;101288.97;10462108;28;20205;-68
2022/04/12 21:00:12;;;;;;;18.90;8.77;;;;;;;6.84;66.55;101294.16;10461960;28;20213;-68
2022/04/12 21:05:16;;;;;;;24.73;8.27;;;;;;;6.77;66.69;101293.19;10461817;28;20213;-64
2022/04/12 21:10:20;;;;;;;20.00;8.07;;;;;;;6.57;69.72;101306.50;10461794;28;20219;-68
2022/04/12 21:15:25;;;;;;;21.13;9.73;;;;;;;6.50;67.79;101296.91;10458561;28;20876;-70
2022/04/12 21:20:29;;;;;;;18.40;9.00;;;;;;;6.43;68.14;101298.50;10461932;28;20221;-70
2022/04/12 21:25:32;;;;;;;20.53;9.63;;;;;;;6.41;66.09;101301.84;10462114;28;20246;-67
2022/04/12 21:30:37;;;;;;;19.73;9.17;;;;;;;6.33;67.25;101305.97;10461948;28;20233;-68
2022/04/12 21:35:40;;;;;;;23.70;9.13;;;;;;;6.13;66.15;101302.94;10461289;28;20307;-69
2022/04/12 21:40:44;;;;;;;20.57;10.60;;;;;;;5.98;66.72;101307.75;10461454;28;20714;-68
2022/04/12 21:45:49;;;;;;;22.43;11.60;;;;;;;6.03;67.56;101316.47;10461078;28;20235;-67
2022/04/12 21:50:52;;;;;;;26.00;11.77;;;;;;;6.03;69.05;101315.59;10461064;28;20220;-69
2022/04/12 21:55:55;;;;;;;28.63;12.07;;;;;;;5.90;68.66;101313.56;10461388;28;20227;-69
2022/04/12 22:01:02;;;;;;;21.83;10.47;;;;;;;5.84;69.33;101310.00;10460555;28;20235;-71
2022/04/12 22:06:06;;;;;;;24.37;10.80;;;;;;;5.79;70.81;101311.56;10460367;28;20228;-70
2022/04/12 22:11:10;;;;;;;29.40;12.70;;;;;;;5.67;70.49;101311.28;10459951;28;20213;-64
2022/04/12 22:16:15;;;;;;;60.10;30.25;;;;;;;5.59;72.27;101317.06;10458737;28;20437;-67
2022/04/12 22:21:19;;;;;;;30.20;12.87;;;;;;;5.57;72.29;101327.31;10459267;28;20574;-68
2022/04/12 22:26:22;;;;;;;24.03;11.77;;;;;;;5.42;74.93;101326.91;10459379;28;20224;-68
2022/04/12 22:31:27;;;;;;;24.63;11.27;;;;;;;5.36;74.26;101331.03;10458523;28;20227;-68
2022/04/12 22:36:30;;;;;;;25.60;12.83;;;;;;;5.37;73.49;101331.06;10459438;28;20231;-69
2022/04/12 22:42:04;;;;;;;26.53;11.80;;;;;;;5.27;75.44;101334.25;10459220;28;20213;-68
2022/04/12 22:47:15;;;;;;;29.13;13.93;;;;;;;5.27;76.06;101343.66;10459250;28;20236;-69
2022/04/12 22:52:18;;;;;;;27.77;13.20;;;;;;;5.20;77.37;101334.03;10458990;28;20213;-67
2022/04/12 22:57:21;;;;;;;26.30;13.10;;;;;;;5.09;77.21;101331.16;10459322;28;20217;-68
2022/04/12 23:02:26;;;;;;;34.70;15.10;;;;;;;5.14;77.67;101339.03;10458537;28;20534;-69
2022/04/12 23:07:29;;;;;;;37.30;17.30;;;;;;;5.06;78.11;101332.78;10458522;28;20224;-66
2022/04/12 23:12:34;;;;;;;35.90;15.40;;;;;;;4.94;78.23;101324.72;10458499;28;20221;-68
2022/04/12 23:17:51;;;;;;;41.00;18.63;;;;;;;4.89;77.86;101319.47;10458422;28;20548;-68
2022/04/12 23:22:55;;;;;;;38.90;19.37;;;;;;;4.84;77.74;101323.59;10458468;28;20299;-64